sensor_id;sensor_type;location;lat;lon;timestamp;P1;durP1;ratioP1;P2;durP2;ratioP2
72261;SDS011;60173;52.112;8.648;2022-12-07T00:01:10;30.05;;;18.92;;
72261;SDS011;60173;52.112;8.648;2022-12-07T00:03:42;32.75;;;20.67;;
72261;SDS011;60173;52.112;8.648;2022-12-07T00:06:11;34.22;;;20.75;;
72261;SDS011;60173;52.112;8.648;2022-12-07T00:08:39;38.78;;;23.38;;
72261;SDS011;60173;52.112;8.648;2022-12-07T00:11:06;35.20;;;23.20;;
72261;SDS011;60173;52.112;8.648;2022-12-07T00:13:38;39.58;;;23.05;;
72261;SDS011;60173;52.112;8.648;2022-12-07T00:16:08;37.20;;;22.92;;
72261;SDS011;60173;52.112;8.648;2022-12-07T00:18:39;40.65;;;24.67;;
72261;SDS011;60173;52.112;8.648;2022-12-07T00:21:09;51.53;;;28.98;;
72261;SDS011;60173;52.112;8.648;2022-12-07T00:23:37;48.17;;;28.42;;
72261;SDS011;60173;52.112;8.648;2022-12-07T00:26:05;48.45;;;28.70;;
72261;SDS011;60173;52.112;8.648;2022-12-07T00:28:33;51.03;;;30.00;;
72261;SDS011;60173;52.112;8.648;2022-12-07T00:31:10;49.63;;;29.38;;
72261;SDS011;60173;52.112;8.648;2022-12-07T00:33:37;55.78;;;31.55;;
72261;SDS011;60173;52.112;8.648;2022-12-07T00:36:05;55.92;;;30.23;;
72261;SDS011;60173;52.112;8.648;2022-12-07T00:38:34;56.60;;;31.27;;
72261;SDS011;60173;52.112;8.648;2022-12-07T00:41:02;55.80;;;32.22;;
72261;SDS011;60173;52.112;8.648;2022-12-07T00:43:31;53.15;;;32.00;;
72261;SDS011;60173;52.112;8.648;2022-12-07T00:46:00;52.72;;;31.63;;
72261;SDS011;60173;52.112;8.648;2022-12-07T00:48:26;57.25;;;31.35;;
72261;SDS011;60173;52.112;8.648;2022-12-07T00:50:52;54.65;;;32.05;;
72261;SDS011;60173;52.112;8.648;2022-12-07T00:53:19;55.55;;;32.08;;
72261;SDS011;60173;52.112;8.648;2022-12-07T00:55:45;58.13;;;32.42;;
72261;SDS011;60173;52.112;8.648;2022-12-07T00:58:12;59.15;;;33.78;;
72261;SDS011;60173;52.112;8.648;2022-12-07T01:00:40;56.70;;;33.00;;
72261;SDS011;60173;52.112;8.648;2022-12-07T01:03:08;57.70;;;33.58;;
72261;SDS011;60173;52.112;8.648;2022-12-07T01:05:36;59.13;;;33.35;;
72261;SDS011;60173;52.112;8.648;2022-12-07T01:08:03;55.55;;;32.50;;
72261;SDS011;60173;52.112;8.648;2022-12-07T01:10:29;56.13;;;32.05;;
72261;SDS011;60173;52.112;8.648;2022-12-07T01:12:56;52.00;;;29.98;;
72261;SDS011;60173;52.112;8.648;2022-12-07T01:15:22;56.38;;;32.33;;
72261;SDS011;60173;52.112;8.648;2022-12-07T01:17:49;49.78;;;29.63;;
72261;SDS011;60173;52.112;8.648;2022-12-07T01:20:15;47.00;;;27.85;;
72261;SDS011;60173;52.112;8.648;2022-12-07T01:22:42;45.60;;;27.33;;
72261;SDS011;60173;52.112;8.648;2022-12-07T01:25:10;46.75;;;27.70;;
72261;SDS011;60173;52.112;8.648;2022-12-07T01:27:37;44.97;;;25.80;;
72261;SDS011;60173;52.112;8.648;2022-12-07T01:30:04;42.55;;;25.15;;
72261;SDS011;60173;52.112;8.648;2022-12-07T01:32:32;45.22;;;25.75;;
72261;SDS011;60173;52.112;8.648;2022-12-07T01:34:59;41.97;;;24.23;;
72261;SDS011;60173;52.112;8.648;2022-12-07T01:37:26;44.15;;;24.58;;
72261;SDS011;60173;52.112;8.648;2022-12-07T01:39:52;41.38;;;23.83;;
72261;SDS011;60173;52.112;8.648;2022-12-07T01:42:18;40.35;;;24.50;;
72261;SDS011;60173;52.112;8.648;2022-12-07T01:47:55;41.05;;;24.45;;
72261;SDS011;60173;52.112;8.648;2022-12-07T01:50:24;44.08;;;24.83;;
72261;SDS011;60173;52.112;8.648;2022-12-07T01:52:52;40.85;;;24.05;;
72261;SDS011;60173;52.112;8.648;2022-12-07T01:55:22;43.25;;;24.88;;
72261;SDS011;60173;52.112;8.648;2022-12-07T01:57:49;41.00;;;23.88;;
72261;SDS011;60173;52.112;8.648;2022-12-07T02:00:18;43.72;;;24.40;;
72261;SDS011;60173;52.112;8.648;2022-12-07T02:02:51;38.63;;;22.02;;
72261;SDS011;60173;52.112;8.648;2022-12-07T02:05:22;42.58;;;22.85;;
72261;SDS011;60173;52.112;8.648;2022-12-07T02:07:50;38.20;;;22.40;;
72261;SDS011;60173;52.112;8.648;2022-12-07T02:10:23;35.47;;;20.85;;
72261;SDS011;60173;52.112;8.648;2022-12-07T02:12:53;37.45;;;22.00;;
72261;SDS011;60173;52.112;8.648;2022-12-07T02:15:22;37.42;;;21.35;;
72261;SDS011;60173;52.112;8.648;2022-12-07T02:18:00;37.25;;;20.67;;
72261;SDS011;60173;52.112;8.648;2022-12-07T02:20:34;39.10;;;21.35;;
72261;SDS011;60173;52.112;8.648;2022-12-07T02:28:35;36.97;;;21.33;;
72261;SDS011;60173;52.112;8.648;2022-12-07T02:31:14;40.92;;;21.70;;
72261;SDS011;60173;52.112;8.648;2022-12-07T02:33:49;36.08;;;20.92;;
72261;SDS011;60173;52.112;8.648;2022-12-07T02:36:22;41.75;;;22.90;;
72261;SDS011;60173;52.112;8.648;2022-12-07T02:41:34;35.53;;;20.67;;
72261;SDS011;60173;52.112;8.648;2022-12-07T02:44:16;36.67;;;20.67;;
72261;SDS011;60173;52.112;8.648;2022-12-07T02:49:43;35.42;;;18.15;;
72261;SDS011;60173;52.112;8.648;2022-12-07T02:52:10;36.72;;;17.95;;
72261;SDS011;60173;52.112;8.648;2022-12-07T02:54:36;31.55;;;17.75;;
72261;SDS011;60173;52.112;8.648;2022-12-07T03:11:08;30.88;;;15.82;;
72261;SDS011;60173;52.112;8.648;2022-12-07T03:21:38;34.95;;;16.95;;
72261;SDS011;60173;52.112;8.648;2022-12-07T03:24:29;29.05;;;15.68;;
72261;SDS011;60173;52.112;8.648;2022-12-07T03:27:01;34.78;;;15.02;;
72261;SDS011;60173;52.112;8.648;2022-12-07T03:29:36;24.98;;;14.60;;
72261;SDS011;60173;52.112;8.648;2022-12-07T03:32:15;29.13;;;13.95;;
72261;SDS011;60173;52.112;8.648;2022-12-07T03:34:59;26.33;;;14.25;;
72261;SDS011;60173;52.112;8.648;2022-12-07T03:37:36;28.77;;;14.40;;
72261;SDS011;60173;52.112;8.648;2022-12-07T03:43:01;26.98;;;12.88;;
72261;SDS011;60173;52.112;8.648;2022-12-07T03:45:32;25.13;;;13.52;;
72261;SDS011;60173;52.112;8.648;2022-12-07T03:48:13;30.10;;;13.20;;
72261;SDS011;60173;52.112;8.648;2022-12-07T03:50:59;27.25;;;12.80;;
72261;SDS011;60173;52.112;8.648;2022-12-07T03:53:40;28.35;;;13.18;;
72261;SDS011;60173;52.112;8.648;2022-12-07T03:56:12;32.65;;;13.23;;
72261;SDS011;60173;52.112;8.648;2022-12-07T03:58:39;23.25;;;11.65;;
72261;SDS011;60173;52.112;8.648;2022-12-07T04:01:07;25.20;;;11.40;;
72261;SDS011;60173;52.112;8.648;2022-12-07T04:03:34;25.70;;;12.20;;
72261;SDS011;60173;52.112;8.648;2022-12-07T04:06:00;22.58;;;11.70;;
72261;SDS011;60173;52.112;8.648;2022-12-07T04:08:27;26.60;;;12.27;;
72261;SDS011;60173;52.112;8.648;2022-12-07T04:10:54;24.00;;;11.40;;
72261;SDS011;60173;52.112;8.648;2022-12-07T04:13:20;22.92;;;12.15;;
72261;SDS011;60173;52.112;8.648;2022-12-07T04:15:46;28.05;;;12.02;;
72261;SDS011;60173;52.112;8.648;2022-12-07T04:18:13;28.85;;;12.57;;
72261;SDS011;60173;52.112;8.648;2022-12-07T04:20:39;26.40;;;12.65;;
72261;SDS011;60173;52.112;8.648;2022-12-07T04:23:05;27.88;;;12.55;;
72261;SDS011;60173;52.112;8.648;2022-12-07T04:25:32;29.40;;;14.00;;
72261;SDS011;60173;52.112;8.648;2022-12-07T04:27:58;24.30;;;11.75;;
72261;SDS011;60173;52.112;8.648;2022-12-07T04:30:24;29.70;;;13.27;;
72261;SDS011;60173;52.112;8.648;2022-12-07T04:32:51;22.98;;;13.38;;
72261;SDS011;60173;52.112;8.648;2022-12-07T04:35:17;22.17;;;12.00;;
72261;SDS011;60173;52.112;8.648;2022-12-07T04:37:43;29.45;;;13.00;;
72261;SDS011;60173;52.112;8.648;2022-12-07T04:40:10;25.23;;;12.35;;
72261;SDS011;60173;52.112;8.648;2022-12-07T04:42:37;25.27;;;11.32;;
72261;SDS011;60173;52.112;8.648;2022-12-07T04:45:04;19.88;;;10.88;;
72261;SDS011;60173;52.112;8.648;2022-12-07T04:47:31;27.13;;;11.18;;
72261;SDS011;60173;52.112;8.648;2022-12-07T04:49:57;23.10;;;11.15;;
72261;SDS011;60173;52.112;8.648;2022-12-07T04:52:24;24.23;;;10.98;;
72261;SDS011;60173;52.112;8.648;2022-12-07T04:54:50;24.85;;;10.10;;
72261;SDS011;60173;52.112;8.648;2022-12-07T04:57:16;21.52;;;10.60;;
72261;SDS011;60173;52.112;8.648;2022-12-07T04:59:43;19.10;;;9.30;;
72261;SDS011;60173;52.112;8.648;2022-12-07T05:02:11;19.85;;;9.27;;
72261;SDS011;60173;52.112;8.648;2022-12-07T05:04:38;21.23;;;9.73;;
72261;SDS011;60173;52.112;8.648;2022-12-07T05:07:04;19.75;;;9.48;;
72261;SDS011;60173;52.112;8.648;2022-12-07T05:09:30;26.42;;;10.30;;
72261;SDS011;60173;52.112;8.648;2022-12-07T05:11:57;21.23;;;9.52;;
72261;SDS011;60173;52.112;8.648;2022-12-07T05:14:23;18.92;;;8.90;;
72261;SDS011;60173;52.112;8.648;2022-12-07T05:16:50;17.42;;;9.40;;
72261;SDS011;60173;52.112;8.648;2022-12-07T05:19:17;22.08;;;9.88;;
72261;SDS011;60173;52.112;8.648;2022-12-07T05:21:44;17.73;;;9.23;;
72261;SDS011;60173;52.112;8.648;2022-12-07T05:24:12;23.15;;;9.55;;
72261;SDS011;60173;52.112;8.648;2022-12-07T05:26:40;20.30;;;9.13;;
72261;SDS011;60173;52.112;8.648;2022-12-07T05:29:07;16.73;;;8.50;;
72261;SDS011;60173;52.112;8.648;2022-12-07T05:31:37;23.88;;;10.23;;
72261;SDS011;60173;52.112;8.648;2022-12-07T05:34:03;19.10;;;9.25;;
72261;SDS011;60173;52.112;8.648;2022-12-07T05:36:29;19.67;;;8.85;;
72261;SDS011;60173;52.112;8.648;2022-12-07T05:38:56;17.45;;;8.65;;
72261;SDS011;60173;52.112;8.648;2022-12-07T05:41:22;20.20;;;8.90;;
72261;SDS011;60173;52.112;8.648;2022-12-07T05:43:48;17.83;;;8.98;;
72261;SDS011;60173;52.112;8.648;2022-12-07T05:46:15;14.07;;;8.75;;
72261;SDS011;60173;52.112;8.648;2022-12-07T05:48:41;18.00;;;8.57;;
72261;SDS011;60173;52.112;8.648;2022-12-07T05:51:07;18.67;;;8.80;;
72261;SDS011;60173;52.112;8.648;2022-12-07T05:53:34;16.45;;;8.38;;
72261;SDS011;60173;52.112;8.648;2022-12-07T05:56:00;18.85;;;8.57;;
72261;SDS011;60173;52.112;8.648;2022-12-07T05:58:26;16.88;;;8.18;;
72261;SDS011;60173;52.112;8.648;2022-12-07T06:00:56;17.67;;;7.15;;
72261;SDS011;60173;52.112;8.648;2022-12-07T06:03:23;18.13;;;7.72;;
72261;SDS011;60173;52.112;8.648;2022-12-07T06:05:49;18.88;;;6.93;;
72261;SDS011;60173;52.112;8.648;2022-12-07T06:08:15;15.48;;;6.65;;
72261;SDS011;60173;52.112;8.648;2022-12-07T06:10:42;16.42;;;6.70;;
72261;SDS011;60173;52.112;8.648;2022-12-07T06:13:08;15.65;;;6.07;;
72261;SDS011;60173;52.112;8.648;2022-12-07T06:15:36;14.77;;;6.35;;
72261;SDS011;60173;52.112;8.648;2022-12-07T06:18:02;16.17;;;6.10;;
72261;SDS011;60173;52.112;8.648;2022-12-07T06:20:29;14.90;;;5.50;;
72261;SDS011;60173;52.112;8.648;2022-12-07T06:22:55;12.85;;;6.00;;
72261;SDS011;60173;52.112;8.648;2022-12-07T06:25:22;15.63;;;6.70;;
72261;SDS011;60173;52.112;8.648;2022-12-07T06:27:48;18.83;;;5.97;;
72261;SDS011;60173;52.112;8.648;2022-12-07T06:30:14;20.23;;;8.90;;
72261;SDS011;60173;52.112;8.648;2022-12-07T06:32:41;32.05;;;14.48;;
72261;SDS011;60173;52.112;8.648;2022-12-07T06:35:07;25.77;;;12.40;;
72261;SDS011;60173;52.112;8.648;2022-12-07T06:37:34;19.88;;;8.93;;
72261;SDS011;60173;52.112;8.648;2022-12-07T06:40:00;13.88;;;7.38;;
72261;SDS011;60173;52.112;8.648;2022-12-07T06:42:27;14.40;;;7.90;;
72261;SDS011;60173;52.112;8.648;2022-12-07T06:44:53;18.38;;;6.93;;
72261;SDS011;60173;52.112;8.648;2022-12-07T06:47:20;14.60;;;7.43;;
72261;SDS011;60173;52.112;8.648;2022-12-07T06:50:06;22.13;;;8.55;;
72261;SDS011;60173;52.112;8.648;2022-12-07T06:52:33;16.48;;;8.57;;
72261;SDS011;60173;52.112;8.648;2022-12-07T06:55:00;18.65;;;9.45;;
72261;SDS011;60173;52.112;8.648;2022-12-07T06:57:26;16.33;;;8.60;;
72261;SDS011;60173;52.112;8.648;2022-12-07T06:59:53;23.58;;;9.35;;
72261;SDS011;60173;52.112;8.648;2022-12-07T07:02:19;16.35;;;7.95;;
72261;SDS011;60173;52.112;8.648;2022-12-07T07:04:45;15.98;;;8.13;;
72261;SDS011;60173;52.112;8.648;2022-12-07T07:07:12;18.38;;;9.25;;
72261;SDS011;60173;52.112;8.648;2022-12-07T07:09:38;17.40;;;9.40;;
72261;SDS011;60173;52.112;8.648;2022-12-07T07:12:05;21.40;;;10.02;;
72261;SDS011;60173;52.112;8.648;2022-12-07T07:14:31;18.20;;;8.85;;
72261;SDS011;60173;52.112;8.648;2022-12-07T07:16:57;18.77;;;9.32;;
72261;SDS011;60173;52.112;8.648;2022-12-07T07:19:24;23.90;;;9.90;;
72261;SDS011;60173;52.112;8.648;2022-12-07T07:21:50;20.10;;;9.25;;
72261;SDS011;60173;52.112;8.648;2022-12-07T07:24:16;21.67;;;9.57;;
72261;SDS011;60173;52.112;8.648;2022-12-07T07:26:43;26.58;;;9.52;;
72261;SDS011;60173;52.112;8.648;2022-12-07T07:29:09;25.67;;;9.45;;
72261;SDS011;60173;52.112;8.648;2022-12-07T07:31:35;17.83;;;9.10;;
72261;SDS011;60173;52.112;8.648;2022-12-07T07:34:02;22.45;;;9.25;;
72261;SDS011;60173;52.112;8.648;2022-12-07T07:36:28;21.08;;;8.73;;
72261;SDS011;60173;52.112;8.648;2022-12-07T07:38:54;21.92;;;9.38;;
72261;SDS011;60173;52.112;8.648;2022-12-07T07:41:21;16.90;;;8.93;;
72261;SDS011;60173;52.112;8.648;2022-12-07T07:43:47;26.10;;;9.35;;
72261;SDS011;60173;52.112;8.648;2022-12-07T07:46:13;23.67;;;8.82;;
72261;SDS011;60173;52.112;8.648;2022-12-07T07:48:40;16.83;;;8.38;;
72261;SDS011;60173;52.112;8.648;2022-12-07T07:51:06;16.63;;;7.35;;
72261;SDS011;60173;52.112;8.648;2022-12-07T07:53:33;17.30;;;7.60;;
72261;SDS011;60173;52.112;8.648;2022-12-07T07:56:00;20.17;;;7.80;;
72261;SDS011;60173;52.112;8.648;2022-12-07T07:58:27;13.70;;;7.05;;
72261;SDS011;60173;52.112;8.648;2022-12-07T08:00:53;15.60;;;7.45;;
72261;SDS011;60173;52.112;8.648;2022-12-07T08:03:19;12.45;;;7.43;;
72261;SDS011;60173;52.112;8.648;2022-12-07T08:05:46;19.63;;;7.85;;
72261;SDS011;60173;52.112;8.648;2022-12-07T08:08:12;27.02;;;7.63;;
72261;SDS011;60173;52.112;8.648;2022-12-07T08:10:38;16.13;;;7.03;;
72261;SDS011;60173;52.112;8.648;2022-12-07T08:13:05;17.92;;;6.80;;
72261;SDS011;60173;52.112;8.648;2022-12-07T08:15:31;14.68;;;7.18;;
72261;SDS011;60173;52.112;8.648;2022-12-07T08:17:58;13.93;;;6.53;;
72261;SDS011;60173;52.112;8.648;2022-12-07T08:20:25;14.68;;;6.28;;
72261;SDS011;60173;52.112;8.648;2022-12-07T08:22:51;14.40;;;6.60;;
72261;SDS011;60173;52.112;8.648;2022-12-07T08:25:18;13.23;;;5.70;;
72261;SDS011;60173;52.112;8.648;2022-12-07T08:27:45;12.60;;;6.10;;
72261;SDS011;60173;52.112;8.648;2022-12-07T08:30:11;13.90;;;5.35;;
72261;SDS011;60173;52.112;8.648;2022-12-07T08:32:37;15.40;;;5.70;;
72261;SDS011;60173;52.112;8.648;2022-12-07T08:35:04;13.65;;;5.88;;
72261;SDS011;60173;52.112;8.648;2022-12-07T08:37:31;12.95;;;5.40;;
72261;SDS011;60173;52.112;8.648;2022-12-07T08:39:58;11.20;;;5.15;;
72261;SDS011;60173;52.112;8.648;2022-12-07T08:42:25;15.75;;;4.97;;
72261;SDS011;60173;52.112;8.648;2022-12-07T08:44:51;11.60;;;4.57;;
72261;SDS011;60173;52.112;8.648;2022-12-07T08:47:17;11.30;;;4.22;;
72261;SDS011;60173;52.112;8.648;2022-12-07T08:49:45;14.75;;;4.38;;
72261;SDS011;60173;52.112;8.648;2022-12-07T08:52:13;16.92;;;4.38;;
72261;SDS011;60173;52.112;8.648;2022-12-07T08:54:40;13.75;;;5.55;;
72261;SDS011;60173;52.112;8.648;2022-12-07T08:57:08;14.10;;;4.57;;
72261;SDS011;60173;52.112;8.648;2022-12-07T08:59:36;17.23;;;5.03;;
72261;SDS011;60173;52.112;8.648;2022-12-07T09:02:04;13.27;;;4.35;;
72261;SDS011;60173;52.112;8.648;2022-12-07T09:04:31;19.70;;;5.28;;
72261;SDS011;60173;52.112;8.648;2022-12-07T09:06:58;12.70;;;4.55;;
72261;SDS011;60173;52.112;8.648;2022-12-07T09:09:25;11.55;;;4.25;;
72261;SDS011;60173;52.112;8.648;2022-12-07T09:11:51;11.95;;;4.13;;
72261;SDS011;60173;52.112;8.648;2022-12-07T09:14:18;8.65;;;4.20;;
72261;SDS011;60173;52.112;8.648;2022-12-07T09:16:44;10.13;;;3.88;;
72261;SDS011;60173;52.112;8.648;2022-12-07T09:19:10;13.73;;;4.20;;
72261;SDS011;60173;52.112;8.648;2022-12-07T09:21:37;13.68;;;4.28;;
72261;SDS011;60173;52.112;8.648;2022-12-07T09:24:03;9.98;;;3.78;;
72261;SDS011;60173;52.112;8.648;2022-12-07T09:26:30;13.80;;;4.25;;
72261;SDS011;60173;52.112;8.648;2022-12-07T09:28:56;11.57;;;3.97;;
72261;SDS011;60173;52.112;8.648;2022-12-07T09:31:22;11.57;;;4.63;;
72261;SDS011;60173;52.112;8.648;2022-12-07T09:33:58;10.30;;;4.10;;
72261;SDS011;60173;52.112;8.648;2022-12-07T09:36:26;10.13;;;4.05;;
72261;SDS011;60173;52.112;8.648;2022-12-07T09:38:53;13.63;;;4.55;;
72261;SDS011;60173;52.112;8.648;2022-12-07T09:41:20;9.95;;;3.63;;
72261;SDS011;60173;52.112;8.648;2022-12-07T09:43:47;11.90;;;4.00;;
72261;SDS011;60173;52.112;8.648;2022-12-07T09:46:14;10.93;;;3.53;;
72261;SDS011;60173;52.112;8.648;2022-12-07T09:48:44;10.27;;;3.30;;
72261;SDS011;60173;52.112;8.648;2022-12-07T09:53:49;15.82;;;4.03;;
72261;SDS011;60173;52.112;8.648;2022-12-07T09:56:17;12.07;;;3.25;;
72261;SDS011;60173;52.112;8.648;2022-12-07T09:58:45;9.45;;;3.60;;
72261;SDS011;60173;52.112;8.648;2022-12-07T10:03:49;9.50;;;3.13;;
72261;SDS011;60173;52.112;8.648;2022-12-07T10:06:16;9.93;;;3.15;;
72261;SDS011;60173;52.112;8.648;2022-12-07T10:08:42;13.45;;;3.60;;
72261;SDS011;60173;52.112;8.648;2022-12-07T10:11:09;11.40;;;3.70;;
72261;SDS011;60173;52.112;8.648;2022-12-07T10:13:38;17.45;;;4.53;;
72261;SDS011;60173;52.112;8.648;2022-12-07T10:18:50;16.98;;;4.35;;
72261;SDS011;60173;52.112;8.648;2022-12-07T10:21:19;11.05;;;4.03;;
72261;SDS011;60173;52.112;8.648;2022-12-07T10:26:51;13.27;;;4.10;;
72261;SDS011;60173;52.112;8.648;2022-12-07T10:29:35;12.40;;;4.32;;
72261;SDS011;60173;52.112;8.648;2022-12-07T10:34:36;9.60;;;3.08;;
72261;SDS011;60173;52.112;8.648;2022-12-07T10:42:19;12.32;;;3.10;;
72261;SDS011;60173;52.112;8.648;2022-12-07T10:44:47;9.32;;;3.20;;
72261;SDS011;60173;52.112;8.648;2022-12-07T10:52:32;9.02;;;2.83;;
72261;SDS011;60173;52.112;8.648;2022-12-07T10:57:47;10.90;;;2.97;;
72261;SDS011;60173;52.112;8.648;2022-12-07T11:00:37;12.18;;;2.92;;
72261;SDS011;60173;52.112;8.648;2022-12-07T11:05:53;10.98;;;2.97;;
72261;SDS011;60173;52.112;8.648;2022-12-07T11:13:43;12.50;;;2.83;;
72261;SDS011;60173;52.112;8.648;2022-12-07T11:21:57;12.07;;;3.13;;
72261;SDS011;60173;52.112;8.648;2022-12-07T11:24:39;9.70;;;2.72;;
72261;SDS011;60173;52.112;8.648;2022-12-07T11:30:02;17.40;;;3.72;;
72261;SDS011;60173;52.112;8.648;2022-12-07T11:41:09;9.90;;;2.78;;
72261;SDS011;60173;52.112;8.648;2022-12-07T11:43:36;10.90;;;2.35;;
72261;SDS011;60173;52.112;8.648;2022-12-07T11:46:03;10.30;;;2.65;;
72261;SDS011;60173;52.112;8.648;2022-12-07T11:48:38;11.57;;;2.72;;
72261;SDS011;60173;52.112;8.648;2022-12-07T11:51:11;8.85;;;2.80;;
72261;SDS011;60173;52.112;8.648;2022-12-07T11:54:02;8.27;;;2.50;;
72261;SDS011;60173;52.112;8.648;2022-12-07T11:56:29;8.25;;;2.47;;
72261;SDS011;60173;52.112;8.648;2022-12-07T11:58:57;10.50;;;2.63;;
72261;SDS011;60173;52.112;8.648;2022-12-07T12:06:36;9.57;;;2.63;;
72261;SDS011;60173;52.112;8.648;2022-12-07T12:20:41;6.95;;;2.17;;
72261;SDS011;60173;52.112;8.648;2022-12-07T12:23:20;17.77;;;2.83;;
72261;SDS011;60173;52.112;8.648;2022-12-07T12:25:55;9.05;;;2.63;;
72261;SDS011;60173;52.112;8.648;2022-12-07T12:28:40;15.32;;;5.80;;
72261;SDS011;60173;52.112;8.648;2022-12-07T12:33:54;7.28;;;2.50;;
72261;SDS011;60173;52.112;8.648;2022-12-07T12:36:24;10.35;;;2.63;;
72261;SDS011;60173;52.112;8.648;2022-12-07T12:55:00;11.40;;;2.63;;
72261;SDS011;60173;52.112;8.648;2022-12-07T12:57:38;7.65;;;1.90;;
72261;SDS011;60173;52.112;8.648;2022-12-07T13:02:48;9.63;;;2.17;;
72261;SDS011;60173;52.112;8.648;2022-12-07T13:05:23;9.75;;;2.47;;
72261;SDS011;60173;52.112;8.648;2022-12-07T13:13:00;8.20;;;2.58;;
72261;SDS011;60173;52.112;8.648;2022-12-07T13:17:59;17.90;;;2.92;;
72261;SDS011;60173;52.112;8.648;2022-12-07T13:20:43;15.75;;;2.72;;
72261;SDS011;60173;52.112;8.648;2022-12-07T13:23:10;8.23;;;2.53;;
72261;SDS011;60173;52.112;8.648;2022-12-07T13:25:41;6.13;;;2.40;;
72261;SDS011;60173;52.112;8.648;2022-12-07T13:28:37;9.43;;;2.72;;
72261;SDS011;60173;52.112;8.648;2022-12-07T13:31:28;13.55;;;2.70;;
72261;SDS011;60173;52.112;8.648;2022-12-07T13:33:58;5.55;;;2.08;;
72261;SDS011;60173;52.112;8.648;2022-12-07T13:36:37;8.13;;;2.85;;
72261;SDS011;60173;52.112;8.648;2022-12-07T13:42:19;5.65;;;1.92;;
72261;SDS011;60173;52.112;8.648;2022-12-07T13:44:54;12.82;;;2.58;;
72261;SDS011;60173;52.112;8.648;2022-12-07T13:47:34;13.40;;;2.15;;
72261;SDS011;60173;52.112;8.648;2022-12-07T13:50:22;8.75;;;1.80;;
72261;SDS011;60173;52.112;8.648;2022-12-07T13:53:00;8.15;;;2.22;;
72261;SDS011;60173;52.112;8.648;2022-12-07T13:55:28;8.18;;;2.42;;
72261;SDS011;60173;52.112;8.648;2022-12-07T13:57:55;7.65;;;2.03;;
72261;SDS011;60173;52.112;8.648;2022-12-07T14:00:25;8.68;;;2.38;;
72261;SDS011;60173;52.112;8.648;2022-12-07T14:03:02;9.88;;;2.20;;
72261;SDS011;60173;52.112;8.648;2022-12-07T14:05:45;13.02;;;2.25;;
72261;SDS011;60173;52.112;8.648;2022-12-07T14:16:28;7.65;;;2.70;;
72261;SDS011;60173;52.112;8.648;2022-12-07T14:18:58;8.90;;;2.25;;
72261;SDS011;60173;52.112;8.648;2022-12-07T14:21:27;11.50;;;2.63;;
72261;SDS011;60173;52.112;8.648;2022-12-07T14:26:46;10.95;;;2.47;;
72261;SDS011;60173;52.112;8.648;2022-12-07T14:31:58;8.25;;;2.30;;
72261;SDS011;60173;52.112;8.648;2022-12-07T14:34:36;10.93;;;2.47;;
72261;SDS011;60173;52.112;8.648;2022-12-07T14:37:03;7.43;;;2.67;;
72261;SDS011;60173;52.112;8.648;2022-12-07T14:39:32;9.68;;;2.63;;
72261;SDS011;60173;52.112;8.648;2022-12-07T14:41:59;21.98;;;7.30;;
72261;SDS011;60173;52.112;8.648;2022-12-07T14:44:25;27.45;;;11.15;;
72261;SDS011;60173;52.112;8.648;2022-12-07T14:47:00;17.15;;;4.78;;
72261;SDS011;60173;52.112;8.648;2022-12-07T14:49:46;13.05;;;3.20;;
72261;SDS011;60173;52.112;8.648;2022-12-07T14:52:14;11.68;;;2.40;;
72261;SDS011;60173;52.112;8.648;2022-12-07T14:55:13;12.50;;;3.05;;
72261;SDS011;60173;52.112;8.648;2022-12-07T14:57:44;12.07;;;2.53;;
72261;SDS011;60173;52.112;8.648;2022-12-07T15:00:14;10.68;;;3.03;;
72261;SDS011;60173;52.112;8.648;2022-12-07T15:02:41;11.82;;;2.33;;
72261;SDS011;60173;52.112;8.648;2022-12-07T15:05:08;13.05;;;2.75;;
72261;SDS011;60173;52.112;8.648;2022-12-07T15:07:41;8.70;;;2.40;;
72261;SDS011;60173;52.112;8.648;2022-12-07T15:10:21;11.30;;;3.13;;
72261;SDS011;60173;52.112;8.648;2022-12-07T15:12:56;12.23;;;2.70;;
72261;SDS011;60173;52.112;8.648;2022-12-07T15:15:27;15.93;;;2.83;;
72261;SDS011;60173;52.112;8.648;2022-12-07T15:17:57;12.90;;;2.70;;
72261;SDS011;60173;52.112;8.648;2022-12-07T15:20:23;9.48;;;2.67;;
72261;SDS011;60173;52.112;8.648;2022-12-07T15:22:50;16.00;;;3.08;;
72261;SDS011;60173;52.112;8.648;2022-12-07T15:25:16;10.88;;;2.60;;
72261;SDS011;60173;52.112;8.648;2022-12-07T15:27:42;14.32;;;2.60;;
72261;SDS011;60173;52.112;8.648;2022-12-07T15:30:09;17.70;;;3.00;;
72261;SDS011;60173;52.112;8.648;2022-12-07T15:32:35;13.57;;;2.72;;
72261;SDS011;60173;52.112;8.648;2022-12-07T15:35:02;15.35;;;2.50;;
72261;SDS011;60173;52.112;8.648;2022-12-07T15:37:29;13.85;;;2.60;;
72261;SDS011;60173;52.112;8.648;2022-12-07T15:39:55;17.52;;;3.10;;
72261;SDS011;60173;52.112;8.648;2022-12-07T15:42:22;13.57;;;2.55;;
72261;SDS011;60173;52.112;8.648;2022-12-07T15:44:48;13.07;;;2.90;;
72261;SDS011;60173;52.112;8.648;2022-12-07T15:47:14;10.80;;;2.75;;
72261;SDS011;60173;52.112;8.648;2022-12-07T15:49:41;12.75;;;2.85;;
72261;SDS011;60173;52.112;8.648;2022-12-07T15:52:07;18.23;;;3.30;;
72261;SDS011;60173;52.112;8.648;2022-12-07T15:54:33;13.27;;;2.92;;
72261;SDS011;60173;52.112;8.648;2022-12-07T15:57:00;10.77;;;2.85;;
72261;SDS011;60173;52.112;8.648;2022-12-07T15:59:27;8.52;;;2.58;;
72261;SDS011;60173;52.112;8.648;2022-12-07T16:01:54;15.00;;;3.33;;
72261;SDS011;60173;52.112;8.648;2022-12-07T16:04:21;11.63;;;2.35;;
72261;SDS011;60173;52.112;8.648;2022-12-07T16:06:48;8.48;;;2.22;;
72261;SDS011;60173;52.112;8.648;2022-12-07T16:09:14;7.40;;;1.70;;
72261;SDS011;60173;52.112;8.648;2022-12-07T16:11:41;3.33;;;1.08;;
72261;SDS011;60173;52.112;8.648;2022-12-07T16:14:07;4.60;;;1.23;;
72261;SDS011;60173;52.112;8.648;2022-12-07T16:16:33;5.07;;;1.00;;
72261;SDS011;60173;52.112;8.648;2022-12-07T16:19:00;4.75;;;0.80;;
72261;SDS011;60173;52.112;8.648;2022-12-07T16:21:26;5.72;;;1.10;;
72261;SDS011;60173;52.112;8.648;2022-12-07T16:23:53;6.25;;;1.10;;
72261;SDS011;60173;52.112;8.648;2022-12-07T16:26:20;3.33;;;0.85;;
72261;SDS011;60173;52.112;8.648;2022-12-07T16:28:48;6.28;;;0.85;;
72261;SDS011;60173;52.112;8.648;2022-12-07T16:31:16;2.88;;;0.80;;
72261;SDS011;60173;52.112;8.648;2022-12-07T16:33:44;1.90;;;0.85;;
72261;SDS011;60173;52.112;8.648;2022-12-07T16:36:12;3.03;;;0.98;;
72261;SDS011;60173;52.112;8.648;2022-12-07T16:38:40;6.20;;;1.27;;
72261;SDS011;60173;52.112;8.648;2022-12-07T16:41:06;7.13;;;1.20;;
72261;SDS011;60173;52.112;8.648;2022-12-07T16:43:33;5.60;;;1.13;;
72261;SDS011;60173;52.112;8.648;2022-12-07T16:46:00;6.63;;;1.20;;
72261;SDS011;60173;52.112;8.648;2022-12-07T16:48:26;4.32;;;1.42;;
72261;SDS011;60173;52.112;8.648;2022-12-07T16:50:53;4.43;;;2.00;;
72261;SDS011;60173;52.112;8.648;2022-12-07T16:53:19;5.60;;;1.30;;
72261;SDS011;60173;52.112;8.648;2022-12-07T16:55:47;11.35;;;1.52;;
72261;SDS011;60173;52.112;8.648;2022-12-07T16:58:16;6.05;;;1.98;;
72261;SDS011;60173;52.112;8.648;2022-12-07T17:00:43;4.72;;;1.52;;
72261;SDS011;60173;52.112;8.648;2022-12-07T17:03:11;7.03;;;2.50;;
72261;SDS011;60173;52.112;8.648;2022-12-07T17:05:45;6.47;;;2.75;;
72261;SDS011;60173;52.112;8.648;2022-12-07T17:08:13;12.80;;;3.17;;
72261;SDS011;60173;52.112;8.648;2022-12-07T17:10:40;15.52;;;4.18;;
72261;SDS011;60173;52.112;8.648;2022-12-07T17:13:09;17.45;;;5.25;;
72261;SDS011;60173;52.112;8.648;2022-12-07T17:15:36;13.57;;;4.38;;
72261;SDS011;60173;52.112;8.648;2022-12-07T17:18:02;11.60;;;4.60;;